Time;durP1;ratioP1;P1;durP2;ratioP2;P2;SDS_P1;SDS_P2;PMS_P1;PMS_P2;Temp;Humidity;BMP_temperature;BMP_pressure;BME280_temperature;BME280_humidity;BME280_pressure;Samples;Min_cycle;Max_cycle;Signal;HPM_P1;HPM_P2
2023/03/08 00:00:17;;;;;;;4.93;3.63;;;;;;;8.09;73.14;93567.44;5070683;28;20209;-53
2023/03/08 00:02:43;;;;;;;6.13;3.90;;;;;;;8.34;71.69;93610.59;5069813;28;20235;-58
2023/03/08 00:05:09;;;;;;;7.43;4.23;;;;;;;8.29;71.00;93612.78;5070514;28;20758;-55
2023/03/08 00:07:35;;;;;;;5.27;3.87;;;;;;;8.19;73.42;93596.00;5070586;28;20176;-55
2023/03/08 00:10:01;;;;;;;4.57;3.77;;;;;;;8.16;72.64;93597.09;5070893;28;20248;-57
2023/03/08 00:12:27;;;;;;;5.67;3.67;;;;;;;8.20;74.08;93590.81;5070713;28;20224;-53
2023/03/08 00:14:52;;;;;;;5.17;3.60;;;;;;;8.33;73.18;93608.22;5070807;28;20208;-57
2023/03/08 00:17:18;;;;;;;7.63;4.23;;;;;;;8.40;71.67;93621.91;5070534;28;20622;-59
2023/03/08 00:19:44;;;;;;;7.70;4.50;;;;;;;8.33;72.17;93614.09;5070476;28;20266;-58
2023/03/08 00:22:10;;;;;;;6.00;4.23;;;;;;;8.37;73.00;93610.34;5070547;28;20216;-56
2023/03/08 00:24:36;;;;;;;5.53;4.00;;;;;;;8.30;72.25;93624.50;5070451;28;20213;-56
2023/03/08 00:27:01;;;;;;;5.33;3.80;;;;;;;8.35;72.86;93621.53;5070428;28;20192;-56
2023/03/08 00:29:26;;;;;;;7.10;4.50;;;;;;;8.36;71.20;93639.09;5070575;28;20219;-55
2023/03/08 00:31:52;;;;;;;10.07;4.37;;;;;;;8.34;72.95;93614.91;5070196;28;20260;-55
2023/03/08 00:34:17;;;;;;;6.77;3.73;;;;;;;8.36;72.05;93628.97;5070526;28;20223;-55
2023/03/08 00:36:43;;;;;;;6.00;3.87;;;;;;;8.39;71.88;93643.91;5070289;28;20207;-55
2023/03/08 00:39:10;;;;;;;5.73;4.23;;;;;;;8.26;74.78;93597.88;5070367;28;20196;-59
2023/03/08 00:41:36;;;;;;;7.03;4.40;;;;;;;8.45;73.52;93623.09;5070032;28;20184;-59
2023/03/08 00:44:01;;;;;;;6.17;3.50;;;;;;;8.39;71.85;93631.25;5068601;28;20221;-57
2023/03/08 00:46:27;;;;;;;5.37;3.87;;;;;;;8.30;73.27;93614.34;5070229;28;20200;-58
2023/03/08 00:48:52;;;;;;;4.80;3.63;;;;;;;8.29;73.61;93605.19;5069989;28;20737;-58
2023/03/08 00:51:19;;;;;;;8.33;3.97;;;;;;;8.31;72.32;93615.16;5070323;28;20244;-59
2023/03/08 00:53:45;;;;;;;6.73;3.70;;;;;;;8.30;74.68;93596.63;5070310;28;20184;-58
2023/03/08 00:56:11;;;;;;;5.03;3.47;;;;;;;8.29;76.03;93566.41;5069993;28;20189;-58
2023/03/08 00:58:38;;;;;;;6.90;4.00;;;;;;;8.26;75.42;93592.78;5070124;28;20189;-55
2023/03/08 01:01:04;;;;;;;8.27;3.10;;;;;;;8.17;76.61;93583.50;5070136;28;20258;-56
2023/03/08 01:03:30;;;;;;;4.87;3.33;;;;;;;8.37;74.50;93619.66;5070071;28;20215;-54
2023/03/08 01:05:57;;;;;;;4.63;3.20;;;;;;;8.50;72.93;93637.06;5069839;28;20655;-55
2023/03/08 01:08:24;;;;;;;6.13;3.10;;;;;;;8.48;72.71;93637.19;5069971;28;20193;-54
2023/03/08 01:10:52;;;;;;;6.43;3.60;;;;;;;8.35;74.44;93619.81;5069937;28;20236;-54
2023/03/08 01:13:19;;;;;;;6.73;3.77;;;;;;;8.32;74.68;93627.66;5070504;28;20200;-54
2023/03/08 01:15:46;;;;;;;5.50;3.83;;;;;;;8.16;75.70;93597.09;5073205;28;20215;-53
2023/03/08 01:18:11;;;;;;;4.70;3.40;;;;;;;8.23;75.34;93605.72;5071949;28;20197;-54
2023/03/08 01:20:37;;;;;;;13.00;3.70;;;;;;;8.28;75.50;93620.53;5073301;28;20262;-57
2023/03/08 01:23:02;;;;;;;5.47;3.77;;;;;;;8.19;74.47;93631.44;5073172;28;20694;-56
2023/03/08 01:25:28;;;;;;;5.53;3.83;;;;;;;8.03;76.94;93603.44;5073272;28;20292;-54
2023/03/08 01:27:54;;;;;;;5.13;4.07;;;;;;;8.00;78.41;93579.19;5073237;28;20581;-53
2023/03/08 01:30:19;;;;;;;5.30;3.70;;;;;;;7.86;78.68;93587.25;5073077;28;20672;-53
2023/03/08 01:32:45;;;;;;;7.83;3.80;;;;;;;7.97;78.20;93597.19;5072942;28;20181;-54
2023/03/08 01:35:11;;;;;;;9.50;4.90;;;;;;;8.12;76.27;93610.19;5071617;28;20273;-55
2023/03/08 01:37:36;;;;;;;4.67;3.50;;;;;;;8.23;75.72;93627.69;5055207;28;20235;-56
2023/03/08 01:40:03;;;;;;;6.17;3.77;;;;;;;7.89;79.71;93579.41;5073226;28;20220;-55
2023/03/08 01:42:29;;;;;;;7.70;4.10;;;;;;;8.03;78.25;93621.94;5072723;28;20247;-57
2023/03/08 01:44:56;;;;;;;5.80;3.60;;;;;;;7.95;76.45;93637.03;5072562;28;20294;-58
2023/03/08 01:47:27;;;;;;;4.80;3.53;;;;;;;7.83;79.98;93604.44;5072591;28;20747;-57
2023/03/08 01:49:56;;;;;;;5.83;3.50;;;;;;;7.64;80.68;93590.13;5072877;28;20215;-58
2023/03/08 01:52:30;;;;;;;6.50;3.63;;;;;;;7.63;80.38;93581.75;5072573;28;20188;-58
2023/03/08 01:54:59;;;;;;;5.43;4.00;;;;;;;8.00;78.30;93603.72;5071207;28;20220;-57
2023/03/08 01:57:32;;;;;;;6.30;3.60;;;;;;;7.91;78.19;93610.41;5072614;28;20185;-58
2023/03/08 02:00:21;;;;;;;9.33;4.07;;;;;;;7.65;81.21;93579.88;5072923;28;20366;-57
2023/03/08 02:02:50;;;;;;;8.37;3.63;;;;;;;7.68;82.22;93581.34;5054622;28;20239;-56
2023/03/08 02:05:16;;;;;;;5.50;3.80;;;;;;;7.65;82.11;93582.41;5072834;28;20216;-56
2023/03/08 02:07:42;;;;;;;5.43;3.23;;;;;;;7.66;81.43;93613.56;5072515;28;20191;-54
2023/03/08 02:10:08;;;;;;;8.97;3.80;;;;;;;7.94;77.56;93649.81;5072663;28;20208;-55
2023/03/08 02:12:35;;;;;;;5.83;3.90;;;;;;;7.85;77.22;93650.63;5072495;28;20313;-53
2023/03/08 02:15:03;;;;;;;8.50;4.67;;;;;;;7.60;77.81;93634.34;5072486;28;20354;-58
2023/03/08 02:17:29;;;;;;;7.30;5.03;;;;;;;7.49;79.69;93621.88;5054290;28;20313;-58
2023/03/08 02:20:05;;;;;;;6.30;4.07;;;;;;;7.43;82.42;93597.91;5072238;28;20603;-59
2023/03/08 02:22:31;;;;;;;8.37;4.07;;;;;;;7.41;82.50;93604.06;5054139;28;20708;-59
2023/03/08 02:24:56;;;;;;;7.03;4.07;;;;;;;7.63;79.78;93629.78;5071592;28;20213;-55
2023/03/08 02:27:27;;;;;;;9.47;4.43;;;;;;;7.63;78.60;93644.19;5072381;28;20581;-54
2023/03/08 02:29:52;;;;;;;6.40;4.37;;;;;;;7.26;79.40;93620.56;5072474;28;20205;-55
2023/03/08 02:32:18;;;;;;;8.67;5.23;;;;;;;6.96;82.80;93593.75;5072229;28;20195;-57
2023/03/08 02:34:43;;;;;;;7.53;5.10;;;;;;;6.66;84.09;93587.13;5070606;28;20213;-56
2023/03/08 02:37:09;;;;;;;6.57;4.10;;;;;;;6.98;82.67;93596.13;5072197;28;20570;-56
2023/03/08 02:39:34;;;;;;;8.37;4.43;;;;;;;7.01;82.49;93603.47;5070622;28;20223;-52
2023/03/08 02:42:00;;;;;;;8.67;4.90;;;;;;;6.69;86.53;93570.91;5071879;28;20217;-53
2023/03/08 02:44:25;;;;;;;9.53;4.60;;;;;;;6.50;85.79;93599.47;5070991;28;20207;-53
2023/03/08 02:46:51;;;;;;;5.70;4.40;;;;;;;6.52;85.79;93584.19;5072042;28;20559;-54
2023/03/08 02:49:17;;;;;;;11.30;3.87;;;;;;;6.61;87.80;93586.72;5072209;28;20212;-58
2023/03/08 02:51:42;;;;;;;7.10;4.13;;;;;;;6.46;87.49;93613.28;5071820;28;20242;-55
2023/03/08 02:54:07;;;;;;;7.13;4.20;;;;;;;6.56;88.70;93586.34;5072143;28;20205;-58
2023/03/08 02:56:33;;;;;;;6.07;4.00;;;;;;;6.78;85.09;93654.25;5071788;28;20200;-58
2023/03/08 02:58:58;;;;;;;5.43;3.87;;;;;;;6.68;85.90;93615.56;5071809;28;20208;-58
2023/03/08 03:01:24;;;;;;;7.70;4.20;;;;;;;6.69;86.96;93624.72;5071880;28;20246;-53
2023/03/08 03:03:53;;;;;;;10.73;4.63;;;;;;;6.71;85.99;93638.00;5071612;28;20736;-54
2023/03/08 03:06:19;;;;;;;8.23;4.07;;;;;;;6.65;86.29;93636.03;5071661;28;20196;-52
2023/03/08 03:08:45;;;;;;;7.70;4.27;;;;;;;6.49;87.78;93643.31;5071964;28;20270;-53
2023/03/08 03:11:16;;;;;;;6.13;3.90;;;;;;;6.69;86.24;93623.91;5070239;28;20195;-54
2023/03/08 03:13:41;;;;;;;7.23;4.00;;;;;;;6.34;88.61;93618.59;5071314;28;20197;-52
2023/03/08 03:16:08;;;;;;;6.90;4.33;;;;;;;6.21;89.61;93616.28;5071378;28;20612;-55
2023/03/08 03:18:34;;;;;;;5.27;3.90;;;;;;;6.56;88.71;93623.41;5070030;28;20192;-55
2023/03/08 03:21:09;;;;;;;5.60;4.30;;;;;;;6.33;89.99;93648.06;5071243;28;20185;-56
2023/03/08 03:23:35;;;;;;;8.70;4.10;;;;;;;6.41;89.22;93629.72;5071210;28;20240;-55
2023/03/08 03:26:05;;;;;;;10.73;4.70;;;;;;;6.48;90.16;93608.91;5071182;28;20678;-55
2023/03/08 03:28:31;;;;;;;7.10;4.23;;;;;;;6.04;91.39;93618.63;5071374;28;20284;-56
2023/03/08 03:30:56;;;;;;;6.60;3.73;;;;;;;6.30;90.95;93620.53;5071127;28;20665;-55
2023/03/08 03:33:22;;;;;;;6.70;4.57;;;;;;;6.47;89.18;93667.88;5071215;28;20207;-53
2023/03/08 03:35:47;;;;;;;9.77;4.70;;;;;;;6.43;89.00;93693.50;5071317;28;20209;-54
2023/03/08 03:38:12;;;;;;;8.73;4.57;;;;;;;6.49;92.02;93650.88;5071348;28;20196;-56
2023/03/08 03:40:38;;;;;;;8.47;4.43;;;;;;;6.74;87.64;93700.09;5071018;28;20587;-55
2023/03/08 03:43:03;;;;;;;7.63;4.20;;;;;;;6.74;90.01;93673.13;5069641;28;20686;-55
2023/03/08 03:45:29;;;;;;;7.40;4.07;;;;;;;6.48;90.90;93683.81;5070895;28;20307;-54
2023/03/08 03:47:54;;;;;;;6.87;3.60;;;;;;;6.67;87.37;93704.84;5070765;28;20237;-58
2023/03/08 03:50:20;;;;;;;7.57;3.93;;;;;;;6.67;89.89;93691.44;5070426;28;20226;-55
2023/03/08 03:52:52;;;;;;;8.53;4.67;;;;;;;6.57;88.20;93708.28;5052524;28;20658;-54
2023/03/08 03:55:24;;;;;;;7.10;4.87;;;;;;;6.50;89.43;93728.22;5070820;28;20224;-54
2023/03/08 03:57:49;;;;;;;9.33;5.07;;;;;;;6.51;88.23;93729.81;5070817;28;20193;-55
2023/03/08 04:00:16;;;;;;;8.93;4.60;;;;;;;6.57;87.96;93703.22;5070763;28;20205;-56
2023/03/08 04:02:41;;;;;;;9.63;4.80;;;;;;;6.39;89.66;93699.72;5070535;28;20663;-55
2023/03/08 04:05:07;;;;;;;6.60;4.37;;;;;;;6.04;91.72;93685.00;5070592;28;20222;-54
2023/03/08 04:07:32;;;;;;;7.03;4.03;;;;;;;6.13;91.21;93680.91;5070623;28;20176;-55
2023/03/08 04:09:58;;;;;;;9.33;4.50;;;;;;;6.16;90.63;93683.19;5070486;28;20588;-55
2023/03/08 04:12:24;;;;;;;5.30;3.80;;;;;;;6.14;93.37;93659.81;5070604;28;20191;-54
2023/03/08 04:14:49;;;;;;;6.57;3.90;;;;;;;6.10;92.68;93684.50;5071000;28;20236;-53
2023/03/08 04:17:15;;;;;;;6.80;4.20;;;;;;;6.24;92.54;93686.66;5070415;28;20181;-56
2023/03/08 04:19:40;;;;;;;9.70;4.87;;;;;;;7.06;100.00;93725.13;5070620;28;20219;-55
2023/03/08 04:22:06;;;;;;;8.00;4.87;;;;;;;8.03;100.00;93745.13;5070425;28;20718;-56
2023/03/08 04:24:31;;;;;;;8.00;4.53;;;;;;;7.47;100.00;93952.41;5052379;28;20212;-56
2023/03/08 04:26:56;;;;;;;6.67;4.20;;;;;;;7.62;100.00;94032.03;5070737;28;20207;-55
2023/03/08 04:29:22;;;;;;;7.60;3.97;;;;;;;7.31;100.00;93988.28;5070434;28;20283;-55
2023/03/08 04:31:47;;;;;;;5.83;3.90;;;;;;;7.14;100.00;93945.09;5069169;28;20189;-56
2023/03/08 04:34:13;;;;;;;6.93;4.13;;;;;;;7.20;100.00;93973.19;5070204;28;20629;-57
2023/03/08 04:36:39;;;;;;;7.10;4.30;;;;;;;7.05;100.00;93961.03;5070346;28;20324;-53
2023/03/08 04:39:05;;;;;;;8.53;4.60;;;;;;;6.94;100.00;93903.81;5070083;28;20240;-53
2023/03/08 04:41:31;;;;;;;6.57;3.90;;;;;;;7.01;100.00;93930.16;5052172;28;20223;-53
2023/03/08 04:43:56;;;;;;;6.57;4.10;;;;;;;7.14;100.00;93955.22;5070107;28;20624;-54
2023/03/08 04:46:25;;;;;;;8.63;4.57;;;;;;;6.91;100.00;93931.06;5070159;28;20234;-54
2023/03/08 04:48:54;;;;;;;8.70;4.60;;;;;;;6.92;100.00;93941.03;5071851;28;20755;-54
2023/03/08 04:51:23;;;;;;;7.50;4.10;;;;;;;6.85;100.00;93914.66;5073779;28;20223;-57
2023/03/08 04:53:48;;;;;;;8.33;4.03;;;;;;;6.78;100.00;93929.53;5073637;28;20220;-58
2023/03/08 04:56:15;;;;;;;7.77;4.50;;;;;;;6.92;100.00;93922.53;5073716;28;20192;-57
2023/03/08 04:58:41;;;;;;;8.23;4.60;;;;;;;6.94;100.00;93930.78;5073438;28;20189;-58
2023/03/08 05:01:11;;;;;;;6.97;4.70;;;;;;;6.68;100.00;93840.31;5073617;28;20184;-55
2023/03/08 05:03:36;;;;;;;7.10;3.90;;;;;;;6.44;100.00;93842.31;5073749;28;20240;-54
2023/03/08 05:06:02;;;;;;;8.60;4.27;;;;;;;6.40;100.00;93820.75;5073514;28;20676;-54
2023/03/08 05:08:27;;;;;;;6.57;4.33;;;;;;;6.98;100.00;93882.41;5073562;28;20251;-53
2023/03/08 05:10:59;;;;;;;10.07;4.53;;;;;;;6.86;100.00;93880.09;5073582;28;20192;-54
2023/03/08 05:13:30;;;;;;;6.30;4.10;;;;;;;7.03;100.00;93905.56;5073780;28;20273;-54
2023/03/08 05:15:56;;;;;;;8.67;3.90;;;;;;;7.21;100.00;93963.91;5073310;28;20181;-63
2023/03/08 05:18:22;;;;;;;7.90;4.77;;;;;;;6.95;100.00;93897.81;5073195;28;20253;-58
2023/03/08 05:20:54;;;;;;;10.27;5.03;;;;;;;7.33;100.00;93985.63;5073085;28;20287;-58
2023/03/08 05:23:20;;;;;;;8.63;4.40;;;;;;;7.27;100.00;93923.72;5073145;28;20366;-56
2023/03/08 05:25:46;;;;;;;10.83;5.23;;;;;;;7.43;100.00;93989.78;5072977;28;20719;-59
2023/03/08 05:28:14;;;;;;;7.53;4.43;;;;;;;7.36;100.00;93955.03;5073382;28;20279;-58
2023/03/08 05:30:40;;;;;;;6.60;4.40;;;;;;;7.52;100.00;93998.34;5073029;28;20220;-56
2023/03/08 05:33:06;;;;;;;7.20;4.23;;;;;;;7.35;100.00;93979.50;5073018;28;20232;-57
2023/03/08 05:35:32;;;;;;;9.13;5.53;;;;;;;7.38;100.00;93965.81;5073109;28;20289;-55
2023/03/08 05:37:57;;;;;;;10.47;5.30;;;;;;;7.27;100.00;93989.44;5071633;28;20197;-56
2023/03/08 05:40:22;;;;;;;13.03;5.50;;;;;;;7.45;100.00;93994.72;5072955;28;20318;-57
2023/03/08 05:42:48;;;;;;;8.33;5.00;;;;;;;7.55;100.00;94057.03;5073016;28;20655;-56
2023/03/08 05:45:14;;;;;;;13.87;5.23;;;;;;;7.60;100.00;94054.94;5072844;28;20285;-55
2023/03/08 05:47:39;;;;;;;6.70;5.10;;;;;;;7.50;100.00;94045.72;5071737;28;20181;-56
2023/03/08 05:50:06;;;;;;;9.87;5.10;;;;;;;7.45;100.00;94035.97;5072968;28;20242;-54
2023/03/08 05:52:31;;;;;;;8.67;5.40;;;;;;;7.44;100.00;94041.97;5072625;28;20185;-55
2023/03/08 05:54:56;;;;;;;8.53;4.67;;;;;;;7.61;100.00;94068.41;5072604;28;20644;-55
2023/03/08 05:57:22;;;;;;;11.50;5.27;;;;;;;7.44;100.00;94033.56;5072498;28;20181;-54
2023/03/08 05:59:47;;;;;;;10.47;5.00;;;;;;;7.53;100.00;94035.34;5072549;28;20196;-60
2023/03/08 06:02:13;;;;;;;7.67;4.53;;;;;;;7.45;100.00;94004.84;5072302;28;20209;-56
2023/03/08 06:04:39;;;;;;;9.77;5.30;;;;;;;7.51;100.00;94029.63;5072421;28;20212;-55
2023/03/08 06:07:04;;;;;;;9.40;4.70;;;;;;;7.64;100.00;94079.06;5072248;28;20192;-56
2023/03/08 06:09:30;;;;;;;8.93;4.50;;;;;;;7.72;100.00;94086.00;5072579;28;20208;-55
2023/03/08 06:11:55;;;;;;;11.93;5.20;;;;;;;7.65;100.00;94084.91;5072241;28;20184;-58
2023/03/08 06:14:21;;;;;;;20.33;5.33;;;;;;;7.63;100.00;94072.38;5071892;28;20231;-59
2023/03/08 06:16:47;;;;;;;9.93;4.50;;;;;;;7.81;100.00;94067.53;5072107;28;20226;-53
2023/03/08 06:19:13;;;;;;;11.03;6.17;;;;;;;7.73;100.00;94072.44;5072372;28;20220;-55
2023/03/08 06:21:39;;;;;;;19.60;5.17;;;;;;;7.71;100.00;94086.94;5072078;28;20670;-55
2023/03/08 06:24:05;;;;;;;13.47;5.50;;;;;;;7.59;100.00;94019.66;5071901;28;20263;-54
2023/03/08 06:26:31;;;;;;;11.00;4.80;;;;;;;7.80;100.00;94098.03;5054028;28;20294;-54
2023/03/08 06:28:56;;;;;;;10.97;5.47;;;;;;;7.80;100.00;94093.75;5071748;28;20304;-53
2023/03/08 06:31:22;;;;;;;12.43;5.83;;;;;;;8.02;100.00;94097.84;5071978;28;20256;-54
2023/03/08 06:33:47;;;;;;;10.73;5.57;;;;;;;8.21;100.00;94128.28;5072014;28;20679;-53
2023/03/08 06:36:15;;;;;;;14.00;6.40;;;;;;;8.21;100.00;94113.09;5071857;28;20181;-54
2023/03/08 06:38:41;;;;;;;13.03;5.83;;;;;;;8.21;100.00;94125.75;5071795;28;20181;-53
2023/03/08 06:41:09;;;;;;;13.73;6.13;;;;;;;8.07;100.00;94109.19;5071762;28;20180;-53
2023/03/08 06:43:35;;;;;;;8.90;5.50;;;;;;;8.11;100.00;94107.19;5071841;28;20220;-57
2023/03/08 06:46:12;;;;;;;12.33;6.07;;;;;;;8.23;100.00;94114.56;5071695;28;20181;-54
2023/03/08 06:48:38;;;;;;;15.13;6.43;;;;;;;8.18;100.00;94086.28;5071549;28;20192;-55
2023/03/08 06:51:05;;;;;;;11.07;6.13;;;;;;;8.36;100.00;94105.03;5071601;28;20181;-55
2023/03/08 06:53:32;;;;;;;9.77;6.43;;;;;;;8.53;100.00;94136.53;5053480;28;20196;-55
2023/03/08 06:55:57;;;;;;;8.53;5.37;;;;;;;8.34;100.00;94119.53;5071790;28;20672;-56
2023/03/08 06:58:23;;;;;;;14.53;5.80;;;;;;;8.42;100.00;94123.97;5053483;28;20189;-57
2023/03/08 07:00:48;;;;;;;9.43;5.87;;;;;;;8.71;100.00;94154.41;5071569;28;20196;-55
2023/03/08 07:03:14;;;;;;;14.10;5.77;;;;;;;8.85;100.00;94138.81;5071537;28;20209;-55
2023/03/08 07:05:40;;;;;;;13.37;5.90;;;;;;;8.70;100.00;94173.09;5071462;28;20289;-56
2023/03/08 07:08:06;;;;;;;11.67;5.60;;;;;;;8.77;100.00;94157.22;5070289;28;20533;-56
2023/03/08 07:10:32;;;;;;;17.27;6.17;;;;;;;8.91;100.00;94176.31;5070651;28;20288;-55
2023/03/08 07:12:58;;;;;;;8.83;5.87;;;;;;;8.91;100.00;94186.44;5071004;28;20268;-56
2023/03/08 07:15:23;;;;;;;11.00;5.77;;;;;;;8.97;100.00;94147.91;5071220;28;20224;-56
2023/03/08 07:17:51;;;;;;;13.53;5.53;;;;;;;8.98;100.00;94193.41;5071146;28;20608;-57
2023/03/08 07:20:19;;;;;;;15.40;4.70;;;;;;;8.92;100.00;94210.88;5070992;28;20704;-56
2023/03/08 07:22:45;;;;;;;13.07;5.57;;;;;;;9.14;100.00;94203.84;5071230;28;20209;-55
2023/03/08 07:25:12;;;;;;;7.10;4.70;;;;;;;9.22;100.00;94220.91;5071444;28;20205;-53
2023/03/08 07:27:38;;;;;;;10.33;4.70;;;;;;;9.58;100.00;94243.09;5053334;28;20187;-58
2023/03/08 07:30:03;;;;;;;9.00;5.20;;;;;;;9.74;100.00;94300.91;5069591;28;20212;-54
2023/03/08 07:32:29;;;;;;;8.93;5.13;;;;;;;9.52;100.00;94248.69;5070914;28;20578;-53
2023/03/08 07:34:55;;;;;;;10.47;5.63;;;;;;;9.70;100.00;94236.94;5070623;28;20240;-55
2023/03/08 07:37:21;;;;;;;8.00;5.10;;;;;;;9.67;100.00;94287.97;5069461;28;20683;-55
2023/03/08 07:39:46;;;;;;;11.73;5.33;;;;;;;9.51;100.00;94242.03;5071139;28;20240;-56
2023/03/08 07:42:12;;;;;;;9.93;5.53;;;;;;;9.68;100.00;94264.19;5069570;28;20204;-55
2023/03/08 07:44:37;;;;;;;13.03;5.43;;;;;;;9.81;100.00;94246.16;5071252;28;20212;-56
2023/03/08 07:47:06;;;;;;;13.40;5.43;;;;;;;9.68;100.00;94268.47;5070821;28;20267;-56
2023/03/08 07:49:32;;;;;;;13.70;5.27;;;;;;;9.63;100.00;94235.09;5069368;28;20228;-56
2023/03/08 07:51:58;;;;;;;8.90;4.93;;;;;;;9.61;100.00;94242.84;5070794;28;20191;-55
2023/03/08 07:54:24;;;;;;;11.67;6.90;;;;;;;9.66;100.00;94239.88;5069393;28;20215;-54
2023/03/08 07:56:51;;;;;;;11.87;5.80;;;;;;;9.98;100.00;94286.06;5070539;28;20184;-55
2023/03/08 07:59:16;;;;;;;8.10;5.00;;;;;;;10.00;100.00;94277.41;5052658;28;20205;-55
2023/03/08 08:01:42;;;;;;;9.07;5.10;;;;;;;10.14;100.00;94271.13;5052534;28;20242;-54
2023/03/08 08:04:08;;;;;;;12.80;5.90;;;;;;;10.27;100.00;94260.66;5070799;28;20592;-54
2023/03/08 08:06:37;;;;;;;10.30;5.93;;;;;;;10.49;100.00;94284.00;5070877;28;20215;-54
2023/03/08 08:09:03;;;;;;;11.90;6.03;;;;;;;10.44;100.00;94298.88;5070541;28;20209;-56
2023/03/08 08:11:29;;;;;;;11.93;6.40;;;;;;;10.37;100.00;94314.78;5052738;28;20185;-55
2023/03/08 08:13:55;;;;;;;9.33;5.43;;;;;;;10.57;99.64;94324.78;5070617;28;20211;-55
2023/03/08 08:16:20;;;;;;;9.93;6.23;;;;;;;10.47;100.00;94278.25;5070537;28;20173;-54
2023/03/08 08:18:45;;;;;;;7.33;5.77;;;;;;;10.39;100.00;94270.53;5070509;28;20209;-57
2023/03/08 08:21:13;;;;;;;12.70;6.80;;;;;;;10.58;99.81;94306.06;5070462;28;20210;-54
2023/03/08 08:23:40;;;;;;;9.40;5.53;;;;;;;10.57;100.00;94281.56;5069224;28;20213;-54
2023/03/08 08:26:18;;;;;;;10.17;5.20;;;;;;;10.79;99.83;94316.00;5070527;28;20239;-56
2023/03/08 08:28:45;;;;;;;12.93;6.00;;;;;;;10.93;100.00;94303.66;5070751;28;20193;-54
2023/03/08 08:31:14;;;;;;;12.17;5.57;;;;;;;11.33;97.84;94353.41;5070253;28;20238;-55
2023/03/08 08:33:39;;;;;;;10.37;5.10;;;;;;;11.79;96.37;94381.31;5070306;28;20204;-53
2023/03/08 08:36:09;;;;;;;8.40;5.20;;;;;;;12.02;77.25;94417.38;5070079;28;20207;-53
2023/03/08 08:38:35;;;;;;;10.93;5.27;;;;;;;12.21;76.20;94428.22;5070249;28;20497;-59
2023/03/08 08:41:04;;;;;;;10.47;5.07;;;;;;;12.56;74.63;94458.00;5070166;28;20573;-55
2023/03/08 08:43:30;;;;;;;10.93;4.73;;;;;;;12.90;68.67;94512.50;5070070;28;20693;-55
2023/03/08 08:45:57;;;;;;;10.53;5.33;;;;;;;13.01;68.73;94491.06;5070148;28;20215;-55
2023/03/08 08:48:23;;;;;;;10.73;5.43;;;;;;;13.28;66.35;94545.38;5070187;28;20706;-56
2023/03/08 08:50:49;;;;;;;11.03;5.90;;;;;;;13.40;65.42;94546.72;5069869;28;20678;-54
2023/03/08 08:53:15;;;;;;;7.67;4.60;;;;;;;13.55;64.53;94559.75;5070215;28;20189;-54
2023/03/08 08:55:41;;;;;;;13.43;6.00;;;;;;;13.43;64.97;94533.66;5052174;28;20215;-54
2023/03/08 08:58:07;;;;;;;10.17;4.97;;;;;;;13.38;65.46;94520.53;5070065;28;20241;-56
2023/03/08 09:00:34;;;;;;;13.60;6.20;;;;;;;13.25;66.19;94483.59;5069927;28;20675;-55
2023/03/08 09:03:01;;;;;;;13.23;6.67;;;;;;;13.12;65.71;94481.44;5069938;28;20289;-60
2023/03/08 09:05:27;;;;;;;8.70;5.10;;;;;;;13.10;65.48;94477.44;5069821;28;20254;-58
2023/03/08 09:07:53;;;;;;;10.47;6.33;;;;;;;12.81;66.25;94459.00;5069881;28;20173;-59
2023/03/08 09:10:19;;;;;;;11.17;6.70;;;;;;;12.77;66.39;94465.34;5069873;28;20209;-59
2023/03/08 09:12:45;;;;;;;11.70;5.63;;;;;;;12.70;67.38;94414.13;5051686;28;20181;-59
2023/03/08 09:15:10;;;;;;;11.80;6.80;;;;;;;12.69;66.87;94432.91;5069792;28;20212;-58
2023/03/08 09:17:39;;;;;;;14.70;6.70;;;;;;;12.52;66.61;94439.63;5069783;28;20185;-57
2023/03/08 09:20:09;;;;;;;12.30;6.63;;;;;;;12.61;67.16;94422.66;5069572;28;20242;-58
2023/03/08 09:22:38;;;;;;;10.27;6.20;;;;;;;12.96;66.72;94439.66;5069651;28;20205;-58
2023/03/08 09:25:06;;;;;;;15.30;6.67;;;;;;;13.11;66.62;94433.09;5069517;28;20268;-58
2023/03/08 09:27:31;;;;;;;10.63;6.43;;;;;;;13.27;67.06;94423.75;5069756;28;20725;-58
2023/03/08 09:29:57;;;;;;;11.40;6.17;;;;;;;13.54;66.58;94427.88;5068144;28;20208;-59
2023/03/08 09:32:23;;;;;;;13.30;5.77;;;;;;;13.65;63.95;94500.91;5069540;28;20207;-55
2023/03/08 09:34:50;;;;;;;18.57;6.87;;;;;;;13.63;64.99;94460.19;5071223;28;20298;-55
2023/03/08 09:37:16;;;;;;;14.77;7.10;;;;;;;13.79;64.50;94473.03;5072851;28;20193;-55
2023/03/08 09:39:43;;;;;;;16.53;7.70;;;;;;;14.17;63.80;94489.59;5072830;28;20739;-57
2023/03/08 09:42:32;;;;;;;13.80;6.80;;;;;;;14.71;62.07;94540.28;5071123;28;20249;-56
2023/03/08 09:45:16;;;;;;;21.80;7.15;;;;;;;14.63;59.59;94605.97;5072702;28;20213;-56
2023/03/08 09:47:45;;;;;;;13.97;6.40;;;;;;;14.53;59.15;94575.41;5072540;28;20199;-57
2023/03/08 09:50:10;;;;;;;14.48;6.88;;;;;;;15.07;59.51;94499.81;5072283;28;20233;-57
2023/03/08 09:53:10;;;;;;;14.97;7.70;;;;;;;15.57;57.55;94531.19;5072285;28;20677;-57
2023/03/08 09:55:44;;;;;;;10.30;6.60;;;;;;;16.35;56.64;94529.50;5053992;28;20685;-57
2023/03/08 09:58:33;;;;;;;20.55;7.57;;;;;;;16.90;55.37;94526.81;5072439;28;20188;-56
2023/03/08 10:01:17;;;;;;;12.23;7.07;;;;;;;16.04;54.19;94515.81;5072604;28;20216;-57
2023/03/08 10:04:06;;;;;;;12.02;6.30;;;;;;;16.20;53.52;94515.75;5072585;28;20208;-55
2023/03/08 10:06:50;;;;;;;9.20;6.55;;;;;;;16.14;54.43;94498.47;5072546;28;20200;-54
2023/03/08 10:09:36;;;;;;;12.13;6.05;;;;;;;17.05;53.88;94511.44;5072205;28;20208;-54
2023/03/08 10:12:13;;;;;;;12.25;6.90;;;;;;;17.41;52.28;94544.03;5072205;28;20185;-53
2023/03/08 10:14:48;;;;;;;12.05;5.70;;;;;;;17.92;52.51;94503.06;5072005;28;20216;-55
2023/03/08 10:17:21;;;;;;;14.43;6.78;;;;;;;17.53;51.08;94541.91;5071076;28;20658;-54
2023/03/08 10:20:07;;;;;;;8.52;5.60;;;;;;;17.41;50.45;94543.28;5072163;28;20209;-55
2023/03/08 10:22:37;;;;;;;11.85;5.88;;;;;;;17.21;50.61;94519.03;5072226;28;20721;-55
2023/03/08 10:25:25;;;;;;;11.45;5.78;;;;;;;17.30;50.96;94492.28;5072261;28;20221;-54
2023/03/08 10:27:53;;;;;;;12.40;5.93;;;;;;;17.04;49.71;94504.69;5071990;28;20191;-54
2023/03/08 10:30:21;;;;;;;12.13;5.88;;;;;;;17.73;48.13;94566.16;5071942;28;20248;-54
2023/03/08 10:32:49;;;;;;;8.30;5.60;;;;;;;17.92;48.08;94547.63;5071959;28;20188;-54
2023/03/08 10:35:15;;;;;;;12.75;6.13;;;;;;;18.06;46.60;94574.34;5072136;28;20217;-58
2023/03/08 10:37:41;;;;;;;12.05;6.47;;;;;;;18.66;45.61;94599.88;5072008;28;20276;-55
2023/03/08 10:40:17;;;;;;;12.75;6.05;;;;;;;18.68;46.77;94549.00;5072359;28;20637;-55
2023/03/08 10:42:52;;;;;;;12.23;6.47;;;;;;;18.57;46.69;94542.53;5072027;28;20205;-55
2023/03/08 10:45:21;;;;;;;12.15;5.90;;;;;;;18.53;47.03;94514.75;5053411;28;20274;-54
2023/03/08 10:48:00;;;;;;;16.65;6.85;;;;;;;17.45;47.44;94499.03;5071255;28;20215;-53
2023/03/08 10:50:35;;;;;;;10.98;6.32;;;;;;;16.63;48.97;94435.69;5071554;28;20217;-55
2023/03/08 10:53:16;;;;;;;11.05;6.53;;;;;;;17.81;46.80;94504.34;5071517;28;20180;-56
2023/03/08 10:55:50;;;;;;;10.20;6.80;;;;;;;17.76;47.45;94480.13;5071821;28;20204;-55
2023/03/08 10:58:34;;;;;;;8.77;6.28;;;;;;;17.02;48.37;94435.53;5071616;28;20250;-55
2023/03/08 11:01:23;;;;;;;11.43;6.50;;;;;;;17.05;48.29;94424.13;5071624;28;20250;-57
2023/03/08 11:04:12;;;;;;;10.82;5.95;;;;;;;17.06;49.44;94393.13;5071742;28;20713;-56
2023/03/08 11:06:38;;;;;;;12.18;6.53;;;;;;;17.17;48.95;94405.50;5071532;28;20177;-60
2023/03/08 11:09:18;;;;;;;33.60;7.47;;;;;;;16.91;49.98;94368.41;5071306;28;20245;-58
2023/03/08 11:11:43;;;;;;;9.23;6.32;;;;;;;16.56;50.41;94349.28;5070889;28;20567;-60
2023/03/08 11:14:10;;;;;;;10.05;5.90;;;;;;;16.39;50.45;94334.94;5070902;28;20205;-60
2023/03/08 11:16:48;;;;;;;11.68;5.78;;;;;;;16.33;50.84;94333.06;5070726;28;20181;-58
2023/03/08 11:19:32;;;;;;;13.32;5.82;;;;;;;16.44;51.56;94312.94;5070713;28;20212;-59
2023/03/08 11:22:06;;;;;;;10.07;6.05;;;;;;;16.37;51.22;94303.53;5070917;28;20180;-58
2023/03/08 11:24:32;;;;;;;7.35;5.13;;;;;;;16.14;51.37;94295.88;5071275;28;20212;-55
2023/03/08 11:27:22;;;;;;;11.63;6.03;;;;;;;16.12;51.71;94282.41;5070881;28;20591;-55
2023/03/08 11:29:50;;;;;;;8.68;5.60;;;;;;;16.11;52.52;94244.13;5071126;28;20706;-55
2023/03/08 11:32:37;;;;;;;10.02;5.75;;;;;;;16.51;52.75;94231.75;5071229;28;20263;-54
2023/03/08 11:35:51;;;;;;;11.68;5.22;;;;;;;17.42;49.89;94332.34;5071125;28;20214;-54